Time,TemperatureF,DewpointF,PressureIn,WindDirection,WindDirectionDegrees,WindSpeedMPH,WindSpeedGustMPH,Humidity,HourlyPrecipIn,Conditions,Clouds,dailyrainin,SoftwareType,DateUTC
2013-02-25 00:29:00,36.8,9.0,30.17,East,89,9.0,10.0,31,0.00,,,0.00,VWS V14.01,2013-02-25 08:29:00,
2013-02-25 00:59:00,37.4,10.2,30.19,East,85,0.0,13.0,32,0.00,,,0.00,VWS V14.01,2013-02-25 08:59:00,
2013-02-25 01:29:00,36.1,9.1,30.19,East,88,7.0,9.0,32,0.00,,,0.00,VWS V14.01,2013-02-25 09:29:00,
2013-02-25 01:59:00,32.5,11.4,30.17,East,85,2.0,7.0,41,0.00,,,0.00,VWS V14.01,2013-02-25 09:59:00,
2013-02-25 02:29:00,34.5,9.0,30.16,East,88,1.0,7.0,34,0.00,,,0.00,VWS V14.01,2013-02-25 10:29:00,
2013-02-25 02:59:00,35.9,9.6,30.16,ENE,71,1.0,9.0,33,0.00,,,0.00,VWS V14.01,2013-02-25 10:59:00,
2013-02-25 03:29:00,35.2,9.7,30.17,ENE,76,1.0,7.0,34,0.00,,,0.00,VWS V14.01,2013-02-25 11:29:00,
2013-02-25 03:59:00,34.4,11.4,30.17,ENE,77,2.0,3.0,38,0.00,,,0.00,VWS V14.01,2013-02-25 11:59:00,
2013-02-25 04:29:00,36.1,11.1,30.16,East,91,1.0,5.0,35,0.00,,,0.00,VWS V14.01,2013-02-25 12:29:00,
2013-02-25 04:59:00,40.2,6.3,30.17,ESE,110,3.0,10.0,24,0.00,,,0.00,VWS V14.01,2013-02-25 12:59:00,
2013-02-25 05:29:00,37.5,9.6,30.17,East,83,3.0,8.0,31,0.00,,,0.00,VWS V14.01,2013-02-25 13:29:00,
2013-02-25 05:59:00,36.5,8.0,30.17,East,85,1.0,6.0,30,0.00,,,0.00,VWS V14.01,2013-02-25 13:59:00,
2013-02-25 06:29:00,34.3,10.1,30.17,ENE,72,4.0,7.0,36,0.00,,,0.00,VWS V14.01,2013-02-25 14:29:00,
2013-02-25 06:59:00,33.6,13.0,30.17,East,79,0.0,7.0,42,0.00,,,0.00,VWS V14.01,2013-02-25 14:59:00,
2013-02-25 07:29:00,36.5,13.3,30.17,ENE,71,3.0,6.0,38,0.00,,,0.00,VWS V14.01,2013-02-25 15:29:00,
2013-02-25 07:59:00,45.9,13.0,30.17,ENE,71,0.0,4.0,26,0.00,,,0.00,VWS V14.01,2013-02-25 15:59:00,
2013-02-25 08:29:00,52.4,8.9,30.16,ESE,122,2.0,5.0,17,0.00,,,0.00,VWS V14.01,2013-02-25 16:29:00,
2013-02-25 08:59:00,53.0,9.4,30.15,ESE,106,8.0,17.0,17,0.00,,,0.00,VWS V14.01,2013-02-25 16:59:00,
2013-02-25 09:29:00,55.8,7.3,30.15,SSE,163,0.0,10.0,14,0.00,,,0.00,VWS V14.01,2013-02-25 17:29:00,
2013-02-25 09:59:00,56.1,10.5,30.15,WSW,237,6.0,9.0,16,0.00,,,0.00,VWS V14.01,2013-02-25 17:59:00,
2013-02-25 10:29:00,56.6,13.6,30.16,WNW,301,5.0,10.0,18,0.00,,,0.00,VWS V14.01,2013-02-25 18:29:00,
2013-02-25 10:59:00,57.5,16.8,30.15,SW,235,4.0,9.0,20,0.00,,,0.00,VWS V14.01,2013-02-25 18:59:00,
2013-02-25 11:29:00,58.0,14.8,30.14,SW,219,3.0,11.0,18,0.00,,,0.00,VWS V14.01,2013-02-25 19:29:00,
2013-02-25 11:59:00,58.7,15.3,30.13,WSW,252,10.0,13.0,18,0.00,,,0.00,VWS V14.01,2013-02-25 19:59:00,
2013-02-25 12:29:00,59.0,18.0,30.11,SW,228,6.0,11.0,20,0.00,,,0.00,VWS V14.01,2013-02-25 20:29:00,
2013-02-25 12:59:00,58.6,19.9,30.10,WSW,258,5.0,13.0,22,0.00,,,0.00,VWS V14.01,2013-02-25 20:59:00,
2013-02-25 13:29:00,59.1,21.4,30.08,West,264,3.0,12.0,23,0.00,,,0.00,VWS V14.01,2013-02-25 21:29:00,
2013-02-25 13:59:00,60.6,16.9,30.08,NW,317,0.0,11.0,18,0.00,,,0.00,VWS V14.01,2013-02-25 21:59:00,
2013-02-25 14:29:00,58.8,19.0,30.08,West,272,6.0,13.0,21,0.00,,,0.00,VWS V14.01,2013-02-25 22:29:00,
2013-02-25 14:59:00,58.6,20.9,30.07,West,275,12.0,13.0,23,0.00,,,0.00,VWS V14.01,2013-02-25 22:59:00,
2013-02-25 15:29:00,58.0,20.4,30.06,West,259,5.0,13.0,23,0.00,,,0.00,VWS V14.01,2013-02-25 23:29:00,
2013-02-25 15:59:00,57.1,20.7,30.05,West,259,9.0,15.0,24,0.00,,,0.00,VWS V14.01,2013-02-25 23:59:00,
2013-02-25 16:29:00,54.2,22.6,30.05,West,270,9.0,15.0,29,0.00,,,0.00,VWS V14.01,2013-02-26 00:29:00,
2013-02-25 16:59:00,52.9,21.5,30.04,NW,310,0.0,13.0,29,0.00,,,0.00,VWS V14.01,2013-02-26 00:59:00,
2013-02-25 17:29:00,49.7,20.3,30.03,NW,325,0.0,8.0,31,0.00,,,0.00,VWS V14.01,2013-02-26 01:29:00,
2013-02-25 17:59:00,46.8,19.9,30.03,NW,320,0.0,4.0,34,0.00,,,0.00,VWS V14.01,2013-02-26 01:59:00,
2013-02-25 18:29:00,41.3,24.1,30.04,ENE,73,1.0,5.0,50,0.00,,,0.00,VWS V14.01,2013-02-26 02:29:00,
2013-02-25 18:59:00,38.1,23.4,30.05,ENE,76,3.0,4.0,55,0.00,,,0.00,VWS V14.01,2013-02-26 02:59:00,
2013-02-25 19:29:00,36.3,23.0,30.06,East,81,1.0,5.0,58,0.00,,,0.00,VWS V14.01,2013-02-26 03:29:00,
2013-02-25 19:59:00,35.7,22.4,30.06,East,83,2.0,7.0,58,0.00,,,0.00,VWS V14.01,2013-02-26 03:59:00,
2013-02-25 20:29:00,34.7,22.2,30.07,ENE,78,0.0,7.0,60,0.00,,,0.00,VWS V14.01,2013-02-26 04:29:00,
2013-02-25 20:59:00,34.5,22.1,30.07,East,81,2.0,8.0,60,0.00,,,0.00,VWS V14.01,2013-02-26 04:59:00,
2013-02-25 21:29:00,33.1,21.1,30.08,East,80,5.0,8.0,61,0.00,,,0.00,VWS V14.01,2013-02-26 05:29:00,
2013-02-25 21:59:00,32.8,20.9,30.07,ENE,77,3.0,8.0,61,0.00,,,0.00,VWS V14.01,2013-02-26 05:59:00,
2013-02-25 22:29:00,32.9,20.9,30.06,East,81,5.0,9.0,61,0.00,,,0.00,VWS V14.01,2013-02-26 06:29:00,
2013-02-25 23:30:00,32.0,20.5,30.05,East,90,3.0,8.0,62,0.00,,,0.00,VWS V14.01,2013-02-26 07:30:00,